createdAt,value
2022-08-01T00:02:01.895Z,2.60
2022-08-01T00:04:28.742Z,2.45
2022-08-01T00:06:55.533Z,2.23
2022-08-01T00:09:24.140Z,2.58
2022-08-01T00:11:57.895Z,2.30
2022-08-01T00:14:32.468Z,2.60
2022-08-01T00:17:06.698Z,2.15
2022-08-01T00:19:34.272Z,2.40
2022-08-01T00:22:00.945Z,2.47
2022-08-01T00:24:27.554Z,2.33
2022-08-01T00:26:54.219Z,2.20
2022-08-01T00:30:01.120Z,2.50
2022-08-01T00:32:10.280Z,2.62
2022-08-01T00:34:36.906Z,2.78
2022-08-01T00:37:03.524Z,2.67
2022-08-01T00:39:30.229Z,2.70
2022-08-01T00:41:59.374Z,2.40
2022-08-01T00:44:27.183Z,2.75
2022-08-01T00:46:53.855Z,2.42
2022-08-01T00:49:20.524Z,2.87
2022-08-01T00:51:47.234Z,2.50
2022-08-01T00:54:16.615Z,2.53
2022-08-01T00:56:43.579Z,2.35
2022-08-01T00:59:10.353Z,2.55
2022-08-01T01:01:39.533Z,2.67
2022-08-01T01:04:08.407Z,2.42
2022-08-01T01:06:42.759Z,2.70
2022-08-01T01:09:15.347Z,2.60
2022-08-01T01:12:01.094Z,2.30
2022-08-01T01:14:34.628Z,2.28
2022-08-01T01:17:01.819Z,2.60
2022-08-01T01:19:30.445Z,2.35
2022-08-01T01:22:19.051Z,2.40
2022-08-01T01:24:51.061Z,2.67
2022-08-01T01:27:30.451Z,3.05
2022-08-01T01:30:00.050Z,2.62
2022-08-01T01:32:35.046Z,2.40
2022-08-01T01:35:05.158Z,2.50
2022-08-01T01:37:31.760Z,1.98
2022-08-01T01:39:58.325Z,2.33
2022-08-01T01:42:25.217Z,2.20
2022-08-01T01:44:51.766Z,2.20
2022-08-01T01:47:18.404Z,2.00
2022-08-01T01:49:46.045Z,2.00
2022-08-01T01:52:13.833Z,2.40
2022-08-01T01:54:47.438Z,2.55
2022-08-01T01:57:14.065Z,1.73
2022-08-01T01:59:40.736Z,2.40
2022-08-01T02:02:07.774Z,2.10
2022-08-01T02:04:37.242Z,2.15
2022-08-01T02:07:04.043Z,2.70
2022-08-01T02:09:30.628Z,2.40
2022-08-01T02:11:59.104Z,2.08
2022-08-01T02:14:34.420Z,2.10
2022-08-01T02:17:04.681Z,2.47
2022-08-01T02:19:31.475Z,1.98
2022-08-01T02:22:12.804Z,2.37
2022-08-01T02:24:55.428Z,2.42
2022-08-01T02:27:35.193Z,2.00
2022-08-01T02:30:05.638Z,2.28
2022-08-01T02:32:35.821Z,2.55
2022-08-01T02:35:03.851Z,2.53
2022-08-01T02:37:32.731Z,2.60
2022-08-01T02:39:59.301Z,2.50
2022-08-01T02:42:25.870Z,2.85
2022-08-01T02:44:52.492Z,2.45
2022-08-01T02:47:20.558Z,2.50
2022-08-01T02:49:53.671Z,2.45
2022-08-01T02:52:21.581Z,2.40
2022-08-01T02:57:15.119Z,2.90
2022-08-01T02:59:45.033Z,2.50
2022-08-01T03:02:12.249Z,3.10
2022-08-01T03:04:39.886Z,2.80
2022-08-01T03:07:07.450Z,2.40
2022-08-01T03:09:36.648Z,2.60
2022-08-01T03:12:05.113Z,2.65
2022-08-01T03:14:31.968Z,2.42
2022-08-01T03:16:58.549Z,2.80
2022-08-01T03:19:25.544Z,2.70
2022-08-01T03:21:52.142Z,2.72
2022-08-01T03:24:18.899Z,2.80
2022-08-01T03:26:45.474Z,2.70
2022-08-01T03:29:13.930Z,3.00
2022-08-01T03:31:43.775Z,2.90
2022-08-01T03:34:10.344Z,2.70
2022-08-01T03:36:47.419Z,2.72
2022-08-01T03:39:17.459Z,2.75
2022-08-01T03:41:47.812Z,2.78
2022-08-01T03:44:19.817Z,2.83
2022-08-01T03:46:48.234Z,2.62
2022-08-01T03:49:34.550Z,2.80
2022-08-01T03:52:03.837Z,2.70
2022-08-01T03:54:33.624Z,2.97
2022-08-01T03:57:00.422Z,3.20
2022-08-01T03:59:27.036Z,3.50
2022-08-01T04:01:53.681Z,3.50
2022-08-01T04:04:20.283Z,3.83
2022-08-01T04:06:46.886Z,3.90
2022-08-01T04:09:13.981Z,3.85
2022-08-01T04:11:41.849Z,3.42
2022-08-01T04:14:09.397Z,2.67
2022-08-01T04:19:02.684Z,3.40
2022-08-01T04:21:29.975Z,3.35
2022-08-01T04:23:59.356Z,3.20
2022-08-01T04:26:25.944Z,3.40
2022-08-01T04:28:53.102Z,3.53
2022-08-01T04:31:19.739Z,3.20
2022-08-01T04:33:48.857Z,3.10
2022-08-01T04:36:17.875Z,3.15
2022-08-01T04:38:46.937Z,3.17
2022-08-01T04:41:13.797Z,2.92
2022-08-01T04:43:40.461Z,3.20
2022-08-01T04:46:07.965Z,2.53
2022-08-01T04:48:37.231Z,3.37
2022-08-01T04:51:04.435Z,2.72
2022-08-01T04:53:33.346Z,3.25
2022-08-01T04:56:00.549Z,2.55
2022-08-01T04:58:27.133Z,2.55
2022-08-01T05:00:53.740Z,2.80
2022-08-01T05:03:21.383Z,3.20
2022-08-01T05:05:47.943Z,3.40
2022-08-01T05:08:14.523Z,2.67
2022-08-01T05:10:41.111Z,2.97
2022-08-01T05:13:07.750Z,3.15
2022-08-01T05:15:35.963Z,2.97
2022-08-01T05:18:02.551Z,3.28
2022-08-01T05:20:29.151Z,3.50
2022-08-01T05:22:55.769Z,3.12
2022-08-01T05:25:56.349Z,3.30
2022-08-01T05:28:11.203Z,3.55
2022-08-01T05:30:37.822Z,3.50
2022-08-01T05:33:04.465Z,3.72
2022-08-01T05:35:47.990Z,3.92
2022-08-01T05:38:15.266Z,4.22
2022-08-01T05:40:41.906Z,4.07
2022-08-01T05:43:08.570Z,3.03
2022-08-01T05:45:35.334Z,3.60
2022-08-01T05:48:02.012Z,2.70
2022-08-01T05:50:28.609Z,2.05
2022-08-01T05:52:55.549Z,2.45
2022-08-01T05:55:22.243Z,2.80
2022-08-01T05:57:48.848Z,2.60
2022-08-01T06:00:17.141Z,2.10
2022-08-01T06:02:44.431Z,2.50
2022-08-01T06:05:13.172Z,2.35
2022-08-01T06:07:40.761Z,2.05
2022-08-01T06:10:09.102Z,2.12
2022-08-01T06:12:36.180Z,2.30
2022-08-01T06:15:03.946Z,2.12
2022-08-01T06:17:30.569Z,2.40
2022-08-01T06:19:57.456Z,2.10
2022-08-01T06:22:24.398Z,2.08
2022-08-01T06:24:52.297Z,2.20
2022-08-01T06:27:21.726Z,2.35
2022-08-01T06:29:50.441Z,1.90
2022-08-01T06:32:27.376Z,1.90
2022-08-01T06:34:55.129Z,2.00
2022-08-01T06:37:22.430Z,1.62
2022-08-01T06:39:50.416Z,1.92
2022-08-01T06:42:17.793Z,1.83
2022-08-01T06:44:44.528Z,2.00
2022-08-01T06:49:37.975Z,2.03
2022-08-01T06:52:05.503Z,2.10
2022-08-01T06:54:34.404Z,2.10
2022-08-01T06:57:01.041Z,2.17
2022-08-01T06:59:27.731Z,1.80
2022-08-01T07:01:54.795Z,2.03
2022-08-01T07:04:21.805Z,2.12
2022-08-01T07:06:48.617Z,2.20
2022-08-01T07:11:41.799Z,2.05
2022-08-01T07:16:34.923Z,2.50
2022-08-01T07:19:01.586Z,1.95
2022-08-01T07:21:39.985Z,2.22
2022-08-01T07:24:13.137Z,2.15
2022-08-01T07:26:53.087Z,1.95
2022-08-01T07:29:24.649Z,3.30
2022-08-01T07:31:52.786Z,2.08
2022-08-01T07:34:19.428Z,2.03
2022-08-01T07:36:46.537Z,2.20
2022-08-01T07:39:13.141Z,2.00
2022-08-01T07:41:52.964Z,2.20
2022-08-01T07:44:28.300Z,2.00
2022-08-01T07:46:55.946Z,2.00
2022-08-01T07:49:22.985Z,2.03
2022-08-01T07:52:03.837Z,2.20
2022-08-01T07:54:35.060Z,1.90
2022-08-01T07:57:03.150Z,2.00
2022-08-01T07:59:29.862Z,2.10
2022-08-01T08:01:56.874Z,2.60
2022-08-01T08:04:23.555Z,2.35
2022-08-01T08:06:50.253Z,2.80
2022-08-01T08:11:48.314Z,2.40
2022-08-01T08:14:15.960Z,2.10
2022-08-01T08:16:43.263Z,1.73
2022-08-01T08:19:09.889Z,2.15
2022-08-01T08:21:37.411Z,2.45
2022-08-01T08:24:26.562Z,2.42
2022-08-01T08:27:04.727Z,2.33
2022-08-01T08:29:33.387Z,1.85
2022-08-01T08:32:01.143Z,2.65
2022-08-01T08:34:28.155Z,2.30
2022-08-01T08:39:22.350Z,2.20
2022-08-01T08:41:50.071Z,2.17
2022-08-01T08:44:17.187Z,2.20
2022-08-01T08:46:49.689Z,2.03
2022-08-01T08:49:19.907Z,2.30
2022-08-01T08:51:48.823Z,5.47
2022-08-01T08:54:15.589Z,2.85
2022-08-01T08:56:42.277Z,2.62
2022-08-01T08:59:10.282Z,2.60
2022-08-01T09:01:37.494Z,2.70
2022-08-01T09:06:31.366Z,2.47
2022-08-01T09:11:24.943Z,1.87
2022-08-01T09:14:09.543Z,2.10
2022-08-01T09:16:38.310Z,2.40
2022-08-01T09:19:16.252Z,2.55
2022-08-01T09:21:59.063Z,2.15
2022-08-01T09:24:30.589Z,2.25
2022-08-01T09:26:57.675Z,2.60
2022-08-01T09:29:37.104Z,2.30
2022-08-01T09:32:06.505Z,2.92
2022-08-01T09:34:34.050Z,2.33
2022-08-01T09:37:02.578Z,2.30
2022-08-01T09:39:34.957Z,2.22
2022-08-01T09:42:02.386Z,2.30
2022-08-01T09:44:54.602Z,2.37
2022-08-01T09:47:23.939Z,2.70
2022-08-01T09:49:59.421Z,3.40
2022-08-01T09:52:29.080Z,2.40
2022-08-01T09:55:07.168Z,2.60
2022-08-01T10:00:01.793Z,2.45
2022-08-01T10:02:35.731Z,2.62
2022-08-01T10:05:08.421Z,2.90
2022-08-01T10:07:44.028Z,2.17
2022-08-01T10:10:15.637Z,2.33
2022-08-01T10:12:45.367Z,2.80
2022-08-01T10:15:14.399Z,2.65
2022-08-01T10:17:50.229Z,2.10
2022-08-01T10:20:30.855Z,2.33
2022-08-01T10:23:06.298Z,2.62
2022-08-01T10:25:42.261Z,2.75
2022-08-01T10:28:23.720Z,3.00
2022-08-01T10:30:52.085Z,2.90
2022-08-01T10:33:51.092Z,2.60
2022-08-01T10:36:09.878Z,2.33
2022-08-01T10:38:37.266Z,2.22
2022-08-01T10:41:06.450Z,2.95
2022-08-01T10:43:35.477Z,2.45
2022-08-01T10:46:02.341Z,2.62
2022-08-01T10:48:34.081Z,2.45
2022-08-01T10:51:04.638Z,2.50
2022-08-01T10:53:50.734Z,2.60
2022-08-01T10:56:26.364Z,2.72
2022-08-01T10:59:01.641Z,3.00
2022-08-01T11:01:31.437Z,2.60
2022-08-01T11:04:16.510Z,2.78
2022-08-01T11:06:46.373Z,2.37
2022-08-01T11:09:16.414Z,2.37
2022-08-01T11:12:24.544Z,2.53
2022-08-01T11:15:03.124Z,2.75
2022-08-01T11:17:37.698Z,2.78
2022-08-01T11:20:08.942Z,2.80
2022-08-01T11:23:02.328Z,2.60
2022-08-01T11:25:58.366Z,2.78
2022-08-01T11:28:34.656Z,2.62
2022-08-01T11:31:08.053Z,2.70
2022-08-01T11:33:46.913Z,2.95
2022-08-01T11:36:14.191Z,2.83
2022-08-01T11:38:41.935Z,3.12
2022-08-01T11:41:20.243Z,4.25
2022-08-01T11:44:00.184Z,2.87
2022-08-01T11:47:18.203Z,2.72
2022-08-01T11:49:55.664Z,3.30
2022-08-01T11:52:25.829Z,3.97
2022-08-01T11:54:54.174Z,3.00
2022-08-01T11:57:23.267Z,2.85
2022-08-01T12:00:02.567Z,2.87
2022-08-01T12:02:34.952Z,2.90
2022-08-01T12:05:02.882Z,2.80
2022-08-01T12:07:32.945Z,2.72
2022-08-01T12:10:04.385Z,3.03
2022-08-01T12:12:31.355Z,4.35
2022-08-01T12:15:02.725Z,2.70
2022-08-01T12:17:30.383Z,2.50
2022-08-01T12:19:57.319Z,2.70
2022-08-01T12:22:25.556Z,3.05
2022-08-01T12:24:53.707Z,2.72
2022-08-01T12:27:28.140Z,2.42
2022-08-01T12:29:56.149Z,2.67
2022-08-01T12:32:35.916Z,2.80
2022-08-01T12:35:13.258Z,3.10
2022-08-01T12:37:42.950Z,3.33
2022-08-01T12:40:23.624Z,3.00
2022-08-01T12:42:52.101Z,3.30
2022-08-01T12:45:20.758Z,3.00
2022-08-01T12:47:47.620Z,3.45
2022-08-01T12:50:16.724Z,3.62
2022-08-01T12:52:43.626Z,3.53
2022-08-01T12:55:15.834Z,4.20
2022-08-01T12:57:45.672Z,3.28
2022-08-01T13:00:26.393Z,3.00
2022-08-01T13:03:06.893Z,3.28
2022-08-01T13:05:43.927Z,3.08
2022-08-01T13:08:14.433Z,2.53
2022-08-01T13:10:41.099Z,3.65
2022-08-01T13:13:09.252Z,3.00
2022-08-01T13:15:41.612Z,2.80
2022-08-01T13:18:28.247Z,3.12
2022-08-01T13:21:19.669Z,2.60
2022-08-01T13:24:04.567Z,2.80
2022-08-01T13:26:41.177Z,2.42
2022-08-01T13:29:50.788Z,2.50
2022-08-01T13:32:28.386Z,2.40
2022-08-01T13:35:07.502Z,2.50
2022-08-01T13:37:37.151Z,2.40
2022-08-01T13:40:05.917Z,2.67
2022-08-01T13:42:32.991Z,2.05
2022-08-01T13:44:59.649Z,2.10
2022-08-01T13:47:31.922Z,2.80
2022-08-01T13:50:02.760Z,2.62
2022-08-01T13:52:29.739Z,2.58
2022-08-01T13:54:56.422Z,2.40
2022-08-01T13:57:24.813Z,2.58
2022-08-01T13:59:52.410Z,2.40
2022-08-01T14:02:20.087Z,2.58
2022-08-01T14:04:46.685Z,2.80
2022-08-01T14:07:15.064Z,2.72
2022-08-01T14:09:57.678Z,3.28
2022-08-01T14:12:28.863Z,2.83
2022-08-01T14:14:55.476Z,2.58
2022-08-01T14:17:22.388Z,2.78
2022-08-01T14:19:49.400Z,2.70
2022-08-01T14:22:16.060Z,2.78
2022-08-01T14:24:42.699Z,2.72
2022-08-01T14:29:59.883Z,2.80
2022-08-01T14:32:28.610Z,2.87
2022-08-01T14:34:56.757Z,2.42
2022-08-01T14:37:28.786Z,2.70
2022-08-01T14:39:57.250Z,2.20
2022-08-01T14:42:25.751Z,2.78
2022-08-01T14:44:52.369Z,1.83
2022-08-01T14:47:21.843Z,2.40
2022-08-01T14:49:49.923Z,2.28
2022-08-01T14:52:16.570Z,2.00
2022-08-01T14:54:43.295Z,2.05
2022-08-01T14:57:10.085Z,2.35
2022-08-01T14:59:37.486Z,2.40
2022-08-01T15:02:04.473Z,2.47
2022-08-01T15:04:31.578Z,2.22
2022-08-01T15:06:58.762Z,2.20
2022-08-01T15:09:25.426Z,2.80
2022-08-01T15:11:52.043Z,2.60
2022-08-01T15:14:42.248Z,2.40
2022-08-01T15:17:08.913Z,2.40
2022-08-01T15:19:38.991Z,2.70
2022-08-01T15:22:08.666Z,2.50
2022-08-01T15:27:03.421Z,2.85
2022-08-01T15:29:30.039Z,2.75
2022-08-01T15:31:56.677Z,2.28
2022-08-01T15:34:23.934Z,2.30
2022-08-01T15:36:50.532Z,2.80
2022-08-01T15:39:17.314Z,2.10
2022-08-01T15:41:43.951Z,2.85
2022-08-01T15:44:10.724Z,2.40
2022-08-01T15:46:37.320Z,2.20
2022-08-01T15:49:07.510Z,2.80
2022-08-01T15:51:34.403Z,2.40
2022-08-01T15:54:04.306Z,2.25
2022-08-01T15:56:31.072Z,2.00
2022-08-01T15:58:57.775Z,2.65
2022-08-01T16:01:26.786Z,2.30
2022-08-01T16:03:54.235Z,2.33
2022-08-01T16:06:20.988Z,2.70
2022-08-01T16:08:47.603Z,2.47
2022-08-01T16:11:14.270Z,2.67
2022-08-01T16:13:40.846Z,2.28
2022-08-01T16:16:11.343Z,2.53
2022-08-01T16:18:38.089Z,2.53
2022-08-01T16:21:05.002Z,2.70
2022-08-01T16:23:34.434Z,2.20
2022-08-01T16:26:00.995Z,2.10
2022-08-01T16:28:27.605Z,2.33
2022-08-01T16:31:11.999Z,2.50
2022-08-01T16:33:53.182Z,2.80
2022-08-01T16:36:21.010Z,2.95
2022-08-01T16:38:47.681Z,2.33
2022-08-01T16:41:19.376Z,2.50
2022-08-01T16:43:46.895Z,2.35
2022-08-01T16:46:21.827Z,2.35
2022-08-01T16:48:48.481Z,2.80
2022-08-01T16:51:15.766Z,2.65
2022-08-01T16:53:42.401Z,2.15
2022-08-01T16:56:09.010Z,2.20
2022-08-01T16:58:36.179Z,2.80
2022-08-01T17:03:54.889Z,2.67
2022-08-01T17:06:25.315Z,2.62
2022-08-01T17:11:19.384Z,2.80
2022-08-01T17:13:45.972Z,2.85
2022-08-01T17:16:12.740Z,2.58
2022-08-01T17:18:39.613Z,3.00
2022-08-01T17:21:06.253Z,4.32
2022-08-01T17:23:33.666Z,2.65
2022-08-01T17:26:00.282Z,2.87
2022-08-01T17:28:27.054Z,2.50
2022-08-01T17:30:54.768Z,2.58
2022-08-01T17:33:21.687Z,2.25
2022-08-01T17:35:48.435Z,2.70
2022-08-01T17:38:16.962Z,2.40
2022-08-01T17:40:43.725Z,2.58
2022-08-01T17:43:10.422Z,3.10
2022-08-01T17:45:50.329Z,3.05
2022-08-01T17:48:19.035Z,3.00
2022-08-01T17:50:46.451Z,2.62
2022-08-01T17:53:14.654Z,2.60
2022-08-01T17:55:53.318Z,2.90
2022-08-01T17:58:51.424Z,2.70
2022-08-01T18:01:19.178Z,3.08
2022-08-01T18:03:45.994Z,2.78
2022-08-01T18:08:47.529Z,4.05
2022-08-01T18:11:15.000Z,2.70
2022-08-01T18:16:45.552Z,3.30
2022-08-01T18:19:12.184Z,3.22
2022-08-01T18:21:42.854Z,3.62
2022-08-01T18:24:09.804Z,3.78
2022-08-01T18:26:36.418Z,3.20
2022-08-01T18:29:03.016Z,3.58
2022-08-01T18:31:29.632Z,3.83
2022-08-01T18:33:56.263Z,3.22
2022-08-01T18:36:33.297Z,3.45
2022-08-01T18:39:00.820Z,3.62
2022-08-01T18:41:28.529Z,3.62
2022-08-01T18:44:05.495Z,4.10
2022-08-01T18:46:36.623Z,3.90
2022-08-01T18:49:03.338Z,3.37
2022-08-01T18:51:30.051Z,4.00
2022-08-01T18:53:57.883Z,4.20
2022-08-01T18:56:24.802Z,4.35
2022-08-01T18:59:10.027Z,4.05
2022-08-01T19:01:36.764Z,4.00
2022-08-01T19:04:03.424Z,4.28
2022-08-01T19:06:30.014Z,4.12
2022-08-01T19:09:01.847Z,4.07
2022-08-01T19:11:29.494Z,4.12
2022-08-01T19:13:56.645Z,4.10
2022-08-01T19:16:23.507Z,4.37
2022-08-01T19:18:50.118Z,5.60
2022-08-01T19:21:17.442Z,4.10
2022-08-01T19:24:02.680Z,4.30
2022-08-01T19:26:29.619Z,4.47
2022-08-01T19:29:06.751Z,4.25
2022-08-01T19:31:33.355Z,4.30
2022-08-01T19:34:00.497Z,4.22
2022-08-01T19:36:28.417Z,3.80
2022-08-01T19:38:56.566Z,4.80
2022-08-01T19:41:23.381Z,4.80
2022-08-01T19:43:51.590Z,4.62
2022-08-01T19:46:18.503Z,4.60
2022-08-01T19:48:49.911Z,5.00
2022-08-01T19:51:16.891Z,4.90
2022-08-01T19:53:44.471Z,5.10
2022-08-01T19:56:11.224Z,4.65
2022-08-01T19:58:43.134Z,5.70
2022-08-01T20:01:10.656Z,5.50
2022-08-01T20:03:37.606Z,4.93
2022-08-01T20:06:04.921Z,5.72
2022-08-01T20:11:01.966Z,4.90
2022-08-01T20:13:39.360Z,5.57
2022-08-01T20:16:07.205Z,4.50
2022-08-01T20:18:33.953Z,4.20
2022-08-01T20:21:00.562Z,4.53
2022-08-01T20:23:28.937Z,4.50
2022-08-01T20:25:59.636Z,4.18
2022-08-01T20:28:28.189Z,4.43
2022-08-01T20:31:03.694Z,3.95
2022-08-01T20:33:32.451Z,4.22
2022-08-01T20:36:00.847Z,3.83
2022-08-01T20:38:28.957Z,3.60
2022-08-01T20:40:59.489Z,3.40
2022-08-01T20:43:27.683Z,3.92
2022-08-01T20:45:54.476Z,3.92
2022-08-01T20:48:21.090Z,3.85
2022-08-01T20:51:06.973Z,3.83
2022-08-01T20:53:36.757Z,3.62
2022-08-01T20:56:44.740Z,4.87
2022-08-01T20:59:56.281Z,3.60
2022-08-01T21:02:31.203Z,4.12
2022-08-01T21:05:02.542Z,4.37
2022-08-01T21:07:34.945Z,3.90
2022-08-01T21:10:09.089Z,3.47
2022-08-01T21:12:49.301Z,3.55
2022-08-01T21:15:39.460Z,3.65
2022-08-01T21:18:32.108Z,3.70
2022-08-01T21:20:59.925Z,3.95
2022-08-01T21:23:48.529Z,3.30
2022-08-01T21:28:41.766Z,3.20
2022-08-01T21:31:21.765Z,3.37
2022-08-01T21:34:00.796Z,3.50
2022-08-01T21:36:29.957Z,3.55
2022-08-01T21:39:00.089Z,3.08
2022-08-01T21:42:01.057Z,3.40
2022-08-01T21:44:14.616Z,3.62
2022-08-01T21:46:41.560Z,3.97
2022-08-01T21:49:08.995Z,3.50
2022-08-01T21:51:43.660Z,3.33
2022-08-01T21:54:30.636Z,3.40
2022-08-01T21:56:57.124Z,3.67
2022-08-01T21:59:35.265Z,3.33
2022-08-01T22:02:04.823Z,3.72
2022-08-01T22:04:41.302Z,3.42
2022-08-01T22:07:12.930Z,3.60
2022-08-01T22:09:39.732Z,3.47
2022-08-01T22:12:06.916Z,4.07
2022-08-01T22:14:33.818Z,3.30
2022-08-01T22:17:00.453Z,3.37
2022-08-01T22:19:44.308Z,3.87
2022-08-01T22:22:51.116Z,3.30
2022-08-01T22:24:58.379Z,4.10
2022-08-01T22:28:08.948Z,4.30
2022-08-01T22:30:14.541Z,3.95
2022-08-01T22:32:43.896Z,3.80
2022-08-01T22:35:15.721Z,3.20
2022-08-01T22:37:57.205Z,3.33
2022-08-01T22:40:24.358Z,3.90
2022-08-01T22:42:59.672Z,3.72
2022-08-01T22:45:36.291Z,3.67
2022-08-01T22:48:25.719Z,3.45
2022-08-01T22:51:09.413Z,3.60
2022-08-01T22:54:04.616Z,3.90
2022-08-01T22:56:34.935Z,3.40
2022-08-01T22:59:02.904Z,4.22
2022-08-01T23:01:30.229Z,3.80
2022-08-01T23:06:39.164Z,3.60
2022-08-01T23:09:05.759Z,3.62
2022-08-01T23:11:32.466Z,3.93
2022-08-01T23:14:00.519Z,3.50
2022-08-01T23:16:28.378Z,3.15
2022-08-01T23:18:55.207Z,3.53
2022-08-01T23:21:22.269Z,4.37
2022-08-01T23:23:48.947Z,3.55
2022-08-01T23:26:15.623Z,3.72
2022-08-01T23:31:10.850Z,3.55
2022-08-01T23:33:37.417Z,3.35
2022-08-01T23:36:04.256Z,4.13
2022-08-01T23:38:30.929Z,4.12
2022-08-01T23:40:57.535Z,3.90
2022-08-01T23:43:24.219Z,3.33
2022-08-01T23:46:03.846Z,3.25
2022-08-01T23:48:31.588Z,3.45
2022-08-01T23:50:58.182Z,3.92
2022-08-01T23:53:30.388Z,3.33
2022-08-01T23:55:58.140Z,3.30
2022-08-01T23:58:24.745Z,3.47
